sensor_id;sensor_type;location;lat;lon;timestamp;P1;durP1;ratioP1;P2;durP2;ratioP2
40827;SDS011;26549;50.918;5.338;2022-09-27T00:01:07;3.72;;;0.90;;
40827;SDS011;26549;50.918;5.338;2022-09-27T00:03:37;3.95;;;0.90;;
40827;SDS011;26549;50.918;5.338;2022-09-27T00:06:05;1.20;;;0.70;;
40827;SDS011;26549;50.918;5.338;2022-09-27T00:08:32;3.30;;;0.93;;
40827;SDS011;26549;50.918;5.338;2022-09-27T00:11:00;2.67;;;0.73;;
40827;SDS011;26549;50.918;5.338;2022-09-27T00:13:28;3.03;;;0.98;;
40827;SDS011;26549;50.918;5.338;2022-09-27T00:15:57;2.20;;;0.82;;
40827;SDS011;26549;50.918;5.338;2022-09-27T00:18:23;5.00;;;0.88;;
40827;SDS011;26549;50.918;5.338;2022-09-27T00:20:49;4.32;;;1.38;;
40827;SDS011;26549;50.918;5.338;2022-09-27T00:23:15;5.35;;;1.20;;
40827;SDS011;26549;50.918;5.338;2022-09-27T00:25:41;3.08;;;0.68;;
40827;SDS011;26549;50.918;5.338;2022-09-27T00:28:08;7.07;;;1.00;;
40827;SDS011;26549;50.918;5.338;2022-09-27T00:30:34;2.40;;;0.60;;
40827;SDS011;26549;50.918;5.338;2022-09-27T00:33:06;1.90;;;0.80;;
40827;SDS011;26549;50.918;5.338;2022-09-27T00:35:32;0.47;;;0.45;;
40827;SDS011;26549;50.918;5.338;2022-09-27T00:37:57;2.42;;;0.70;;
40827;SDS011;26549;50.918;5.338;2022-09-27T00:40:23;1.30;;;0.65;;
40827;SDS011;26549;50.918;5.338;2022-09-27T00:42:50;1.77;;;0.70;;
40827;SDS011;26549;50.918;5.338;2022-09-27T00:45:18;1.92;;;0.55;;
40827;SDS011;26549;50.918;5.338;2022-09-27T00:47:57;3.78;;;0.82;;
40827;SDS011;26549;50.918;5.338;2022-09-27T00:50:35;3.58;;;0.75;;
40827;SDS011;26549;50.918;5.338;2022-09-27T00:53:11;2.45;;;1.33;;
40827;SDS011;26549;50.918;5.338;2022-09-27T00:55:43;3.13;;;1.10;;
40827;SDS011;26549;50.918;5.338;2022-09-27T00:58:13;1.55;;;0.80;;
40827;SDS011;26549;50.918;5.338;2022-09-27T01:00:43;1.20;;;0.68;;
40827;SDS011;26549;50.918;5.338;2022-09-27T01:03:13;5.05;;;0.80;;
40827;SDS011;26549;50.918;5.338;2022-09-27T01:05:47;4.32;;;0.82;;
40827;SDS011;26549;50.918;5.338;2022-09-27T01:08:13;4.03;;;0.70;;
40827;SDS011;26549;50.918;5.338;2022-09-27T01:10:40;5.28;;;2.75;;
40827;SDS011;26549;50.918;5.338;2022-09-27T01:13:17;2.25;;;1.83;;
40827;SDS011;26549;50.918;5.338;2022-09-27T01:15:52;3.25;;;0.60;;
40827;SDS011;26549;50.918;5.338;2022-09-27T01:18:36;2.55;;;0.68;;
40827;SDS011;26549;50.918;5.338;2022-09-27T01:21:32;2.53;;;0.55;;
40827;SDS011;26549;50.918;5.338;2022-09-27T01:24:16;1.33;;;0.55;;
40827;SDS011;26549;50.918;5.338;2022-09-27T01:30:39;1.52;;;0.60;;
40827;SDS011;26549;50.918;5.338;2022-09-27T01:33:34;2.58;;;0.45;;
40827;SDS011;26549;50.918;5.338;2022-09-27T01:36:13;0.82;;;0.38;;
40827;SDS011;26549;50.918;5.338;2022-09-27T01:39:21;1.52;;;0.68;;
40827;SDS011;26549;50.918;5.338;2022-09-27T01:47:46;0.82;;;0.75;;
40827;SDS011;26549;50.918;5.338;2022-09-27T01:55:34;0.60;;;0.40;;
40827;SDS011;26549;50.918;5.338;2022-09-27T02:00:48;0.57;;;0.50;;
40827;SDS011;26549;50.918;5.338;2022-09-27T02:03:20;0.60;;;0.52;;
40827;SDS011;26549;50.918;5.338;2022-09-27T02:05:54;1.17;;;0.93;;
40827;SDS011;26549;50.918;5.338;2022-09-27T02:08:28;2.85;;;0.55;;
40827;SDS011;26549;50.918;5.338;2022-09-27T02:11:01;1.27;;;0.52;;
40827;SDS011;26549;50.918;5.338;2022-09-27T02:16:17;2.03;;;0.77;;
40827;SDS011;26549;50.918;5.338;2022-09-27T02:21:50;1.08;;;0.63;;
40827;SDS011;26549;50.918;5.338;2022-09-27T02:24:36;4.32;;;0.60;;
40827;SDS011;26549;50.918;5.338;2022-09-27T02:27:49;3.28;;;0.75;;
40827;SDS011;26549;50.918;5.338;2022-09-27T02:30:06;4.55;;;0.88;;
40827;SDS011;26549;50.918;5.338;2022-09-27T02:32:36;8.23;;;1.10;;
40827;SDS011;26549;50.918;5.338;2022-09-27T02:35:04;1.85;;;0.80;;
40827;SDS011;26549;50.918;5.338;2022-09-27T02:37:52;1.30;;;0.80;;
40827;SDS011;26549;50.918;5.338;2022-09-27T02:40:19;2.67;;;1.00;;
40827;SDS011;26549;50.918;5.338;2022-09-27T02:42:45;1.95;;;0.70;;
40827;SDS011;26549;50.918;5.338;2022-09-27T02:45:11;3.33;;;1.10;;
40827;SDS011;26549;50.918;5.338;2022-09-27T02:50:22;0.65;;;0.60;;
40827;SDS011;26549;50.918;5.338;2022-09-27T02:53:30;5.67;;;1.07;;
40827;SDS011;26549;50.918;5.338;2022-09-27T02:58:42;1.08;;;0.57;;
40827;SDS011;26549;50.918;5.338;2022-09-27T03:04:03;1.05;;;0.50;;
40827;SDS011;26549;50.918;5.338;2022-09-27T03:06:32;4.03;;;1.00;;
40827;SDS011;26549;50.918;5.338;2022-09-27T03:08:59;4.38;;;1.67;;
40827;SDS011;26549;50.918;5.338;2022-09-27T03:11:24;2.15;;;0.50;;
40827;SDS011;26549;50.918;5.338;2022-09-27T03:13:50;2.60;;;0.93;;
40827;SDS011;26549;50.918;5.338;2022-09-27T03:16:19;0.65;;;0.50;;
40827;SDS011;26549;50.918;5.338;2022-09-27T03:18:44;1.83;;;0.50;;
40827;SDS011;26549;50.918;5.338;2022-09-27T03:21:10;2.67;;;1.05;;
40827;SDS011;26549;50.918;5.338;2022-09-27T03:23:36;3.78;;;1.20;;
40827;SDS011;26549;50.918;5.338;2022-09-27T03:26:02;3.50;;;0.77;;
40827;SDS011;26549;50.918;5.338;2022-09-27T03:28:28;1.17;;;0.50;;
40827;SDS011;26549;50.918;5.338;2022-09-27T03:30:54;2.45;;;0.88;;
40827;SDS011;26549;50.918;5.338;2022-09-27T03:33:20;1.70;;;1.13;;
40827;SDS011;26549;50.918;5.338;2022-09-27T03:35:45;0.88;;;0.63;;
40827;SDS011;26549;50.918;5.338;2022-09-27T03:38:12;3.08;;;0.77;;
40827;SDS011;26549;50.918;5.338;2022-09-27T03:40:38;3.63;;;0.55;;
40827;SDS011;26549;50.918;5.338;2022-09-27T03:43:04;1.85;;;0.95;;
40827;SDS011;26549;50.918;5.338;2022-09-27T03:45:29;1.40;;;0.45;;
40827;SDS011;26549;50.918;5.338;2022-09-27T03:47:55;3.60;;;1.00;;
40827;SDS011;26549;50.918;5.338;2022-09-27T03:50:21;2.63;;;0.50;;
40827;SDS011;26549;50.918;5.338;2022-09-27T03:52:47;2.50;;;0.57;;
40827;SDS011;26549;50.918;5.338;2022-09-27T03:55:12;1.20;;;0.50;;
40827;SDS011;26549;50.918;5.338;2022-09-27T03:57:38;1.90;;;0.55;;
40827;SDS011;26549;50.918;5.338;2022-09-27T04:00:08;0.73;;;0.50;;
40827;SDS011;26549;50.918;5.338;2022-09-27T04:02:34;1.00;;;0.52;;
40827;SDS011;26549;50.918;5.338;2022-09-27T04:05:00;0.80;;;0.80;;
40827;SDS011;26549;50.918;5.338;2022-09-27T04:07:25;3.55;;;0.70;;
40827;SDS011;26549;50.918;5.338;2022-09-27T04:09:51;2.78;;;0.75;;
40827;SDS011;26549;50.918;5.338;2022-09-27T04:12:17;1.20;;;0.52;;
40827;SDS011;26549;50.918;5.338;2022-09-27T04:14:43;5.45;;;0.52;;
40827;SDS011;26549;50.918;5.338;2022-09-27T04:17:09;1.00;;;0.50;;
40827;SDS011;26549;50.918;5.338;2022-09-27T04:19:34;1.63;;;0.57;;
40827;SDS011;26549;50.918;5.338;2022-09-27T04:22:01;0.70;;;0.50;;
40827;SDS011;26549;50.918;5.338;2022-09-27T04:24:27;4.88;;;0.70;;
40827;SDS011;26549;50.918;5.338;2022-09-27T04:26:53;0.70;;;0.35;;
40827;SDS011;26549;50.918;5.338;2022-09-27T04:29:18;3.22;;;0.50;;
40827;SDS011;26549;50.918;5.338;2022-09-27T04:31:44;2.10;;;0.50;;
40827;SDS011;26549;50.918;5.338;2022-09-27T04:34:10;5.85;;;0.68;;
40827;SDS011;26549;50.918;5.338;2022-09-27T04:36:36;2.17;;;0.50;;
40827;SDS011;26549;50.918;5.338;2022-09-27T04:39:02;2.38;;;0.70;;
40827;SDS011;26549;50.918;5.338;2022-09-27T04:41:31;0.73;;;0.43;;
40827;SDS011;26549;50.918;5.338;2022-09-27T04:43:57;0.77;;;0.50;;
40827;SDS011;26549;50.918;5.338;2022-09-27T04:46:28;3.38;;;0.60;;
40827;SDS011;26549;50.918;5.338;2022-09-27T04:48:55;2.13;;;0.40;;
40827;SDS011;26549;50.918;5.338;2022-09-27T04:51:25;2.30;;;0.63;;
40827;SDS011;26549;50.918;5.338;2022-09-27T04:53:51;2.35;;;0.60;;
40827;SDS011;26549;50.918;5.338;2022-09-27T04:56:17;3.90;;;0.68;;
40827;SDS011;26549;50.918;5.338;2022-09-27T04:58:43;1.90;;;0.60;;
40827;SDS011;26549;50.918;5.338;2022-09-27T05:01:09;1.55;;;0.40;;
40827;SDS011;26549;50.918;5.338;2022-09-27T05:03:35;2.80;;;0.70;;
40827;SDS011;26549;50.918;5.338;2022-09-27T05:06:01;1.95;;;0.55;;
40827;SDS011;26549;50.918;5.338;2022-09-27T05:08:27;1.17;;;0.55;;
40827;SDS011;26549;50.918;5.338;2022-09-27T05:10:53;1.50;;;0.50;;
40827;SDS011;26549;50.918;5.338;2022-09-27T05:13:19;1.42;;;0.93;;
40827;SDS011;26549;50.918;5.338;2022-09-27T05:15:45;0.50;;;0.50;;
40827;SDS011;26549;50.918;5.338;2022-09-27T05:18:11;0.63;;;0.63;;
40827;SDS011;26549;50.918;5.338;2022-09-27T05:20:37;2.58;;;0.47;;
40827;SDS011;26549;50.918;5.338;2022-09-27T05:23:04;1.08;;;0.50;;
40827;SDS011;26549;50.918;5.338;2022-09-27T05:25:32;1.65;;;0.60;;
40827;SDS011;26549;50.918;5.338;2022-09-27T05:28:00;1.40;;;1.08;;
40827;SDS011;26549;50.918;5.338;2022-09-27T05:30:26;2.92;;;0.63;;
40827;SDS011;26549;50.918;5.338;2022-09-27T05:32:55;1.48;;;0.57;;
40827;SDS011;26549;50.918;5.338;2022-09-27T05:35:21;1.42;;;0.80;;
40827;SDS011;26549;50.918;5.338;2022-09-27T05:37:51;2.83;;;0.70;;
40827;SDS011;26549;50.918;5.338;2022-09-27T05:40:27;3.15;;;1.27;;
40827;SDS011;26549;50.918;5.338;2022-09-27T05:43:06;3.75;;;0.98;;
40827;SDS011;26549;50.918;5.338;2022-09-27T05:45:35;2.80;;;0.70;;
40827;SDS011;26549;50.918;5.338;2022-09-27T05:48:01;0.88;;;0.70;;
40827;SDS011;26549;50.918;5.338;2022-09-27T05:50:33;1.10;;;0.90;;
40827;SDS011;26549;50.918;5.338;2022-09-27T05:52:58;3.15;;;0.98;;
40827;SDS011;26549;50.918;5.338;2022-09-27T05:55:24;2.58;;;0.68;;
40827;SDS011;26549;50.918;5.338;2022-09-27T05:58:01;3.53;;;0.70;;
40827;SDS011;26549;50.918;5.338;2022-09-27T06:00:31;3.08;;;0.90;;
40827;SDS011;26549;50.918;5.338;2022-09-27T06:03:02;1.30;;;0.65;;
40827;SDS011;26549;50.918;5.338;2022-09-27T06:05:38;0.90;;;0.60;;
40827;SDS011;26549;50.918;5.338;2022-09-27T06:08:10;2.15;;;0.60;;
40827;SDS011;26549;50.918;5.338;2022-09-27T06:10:37;3.95;;;1.05;;
40827;SDS011;26549;50.918;5.338;2022-09-27T06:13:05;1.13;;;0.90;;
40827;SDS011;26549;50.918;5.338;2022-09-27T06:15:34;2.95;;;1.48;;
40827;SDS011;26549;50.918;5.338;2022-09-27T06:18:04;3.40;;;1.13;;
40827;SDS011;26549;50.918;5.338;2022-09-27T06:20:32;4.20;;;1.20;;
40827;SDS011;26549;50.918;5.338;2022-09-27T06:23:12;3.53;;;1.25;;
40827;SDS011;26549;50.918;5.338;2022-09-27T06:25:39;5.03;;;1.27;;
40827;SDS011;26549;50.918;5.338;2022-09-27T06:28:05;1.45;;;1.00;;
40827;SDS011;26549;50.918;5.338;2022-09-27T06:30:32;3.63;;;1.00;;
40827;SDS011;26549;50.918;5.338;2022-09-27T06:32:58;3.70;;;1.40;;
40827;SDS011;26549;50.918;5.338;2022-09-27T06:35:26;4.38;;;0.80;;
40827;SDS011;26549;50.918;5.338;2022-09-27T06:37:55;1.92;;;1.30;;
40827;SDS011;26549;50.918;5.338;2022-09-27T06:40:21;4.13;;;1.25;;
40827;SDS011;26549;50.918;5.338;2022-09-27T06:42:50;2.58;;;1.40;;
40827;SDS011;26549;50.918;5.338;2022-09-27T06:45:15;2.55;;;1.40;;
40827;SDS011;26549;50.918;5.338;2022-09-27T06:47:43;6.28;;;2.97;;
40827;SDS011;26549;50.918;5.338;2022-09-27T06:50:10;6.00;;;1.90;;
40827;SDS011;26549;50.918;5.338;2022-09-27T06:52:37;3.10;;;2.00;;
40827;SDS011;26549;50.918;5.338;2022-09-27T06:55:10;2.70;;;1.50;;
40827;SDS011;26549;50.918;5.338;2022-09-27T06:57:36;2.03;;;1.38;;
40827;SDS011;26549;50.918;5.338;2022-09-27T07:00:20;4.80;;;1.98;;
40827;SDS011;26549;50.918;5.338;2022-09-27T07:02:50;3.50;;;1.85;;
40827;SDS011;26549;50.918;5.338;2022-09-27T07:05:18;3.92;;;1.92;;
40827;SDS011;26549;50.918;5.338;2022-09-27T07:07:44;3.03;;;2.08;;
40827;SDS011;26549;50.918;5.338;2022-09-27T07:10:12;4.30;;;1.98;;
40827;SDS011;26549;50.918;5.338;2022-09-27T07:12:38;3.97;;;2.08;;
40827;SDS011;26549;50.918;5.338;2022-09-27T07:15:05;3.33;;;1.80;;
40827;SDS011;26549;50.918;5.338;2022-09-27T07:17:31;3.13;;;1.75;;
40827;SDS011;26549;50.918;5.338;2022-09-27T07:19:57;2.85;;;1.60;;
40827;SDS011;26549;50.918;5.338;2022-09-27T07:22:22;2.15;;;1.80;;
40827;SDS011;26549;50.918;5.338;2022-09-27T07:24:48;3.25;;;2.00;;
40827;SDS011;26549;50.918;5.338;2022-09-27T07:27:14;4.78;;;2.60;;
40827;SDS011;26549;50.918;5.338;2022-09-27T07:29:40;3.30;;;2.08;;
40827;SDS011;26549;50.918;5.338;2022-09-27T07:32:05;4.28;;;1.90;;
40827;SDS011;26549;50.918;5.338;2022-09-27T07:34:34;5.13;;;2.08;;
40827;SDS011;26549;50.918;5.338;2022-09-27T07:37:01;3.35;;;2.05;;
40827;SDS011;26549;50.918;5.338;2022-09-27T07:39:29;2.20;;;1.60;;
40827;SDS011;26549;50.918;5.338;2022-09-27T07:41:56;2.38;;;1.88;;
40827;SDS011;26549;50.918;5.338;2022-09-27T07:44:22;3.25;;;1.23;;
40827;SDS011;26549;50.918;5.338;2022-09-27T07:46:48;1.52;;;1.17;;
40827;SDS011;26549;50.918;5.338;2022-09-27T07:49:14;5.85;;;1.50;;
40827;SDS011;26549;50.918;5.338;2022-09-27T07:51:39;4.10;;;1.25;;
40827;SDS011;26549;50.918;5.338;2022-09-27T07:54:05;1.33;;;1.15;;
40827;SDS011;26549;50.918;5.338;2022-09-27T07:56:33;3.08;;;1.30;;
40827;SDS011;26549;50.918;5.338;2022-09-27T07:58:59;2.47;;;1.08;;
40827;SDS011;26549;50.918;5.338;2022-09-27T08:01:24;1.95;;;1.20;;
40827;SDS011;26549;50.918;5.338;2022-09-27T08:03:50;5.43;;;1.40;;
40827;SDS011;26549;50.918;5.338;2022-09-27T08:06:16;2.30;;;1.20;;
40827;SDS011;26549;50.918;5.338;2022-09-27T08:08:43;3.17;;;1.55;;
40827;SDS011;26549;50.918;5.338;2022-09-27T08:11:12;3.40;;;1.55;;
40827;SDS011;26549;50.918;5.338;2022-09-27T08:13:40;1.95;;;1.60;;
40827;SDS011;26549;50.918;5.338;2022-09-27T08:16:06;1.67;;;1.20;;
40827;SDS011;26549;50.918;5.338;2022-09-27T08:18:32;3.10;;;1.52;;
40827;SDS011;26549;50.918;5.338;2022-09-27T08:20:58;4.03;;;1.50;;
40827;SDS011;26549;50.918;5.338;2022-09-27T08:23:25;4.72;;;2.47;;
40827;SDS011;26549;50.918;5.338;2022-09-27T08:25:51;1.88;;;1.77;;
40827;SDS011;26549;50.918;5.338;2022-09-27T08:28:19;2.72;;;1.55;;
40827;SDS011;26549;50.918;5.338;2022-09-27T08:30:47;4.78;;;1.45;;
40827;SDS011;26549;50.918;5.338;2022-09-27T08:33:13;4.40;;;1.58;;
40827;SDS011;26549;50.918;5.338;2022-09-27T08:35:39;3.47;;;2.30;;
40827;SDS011;26549;50.918;5.338;2022-09-27T08:38:05;4.30;;;2.17;;
40827;SDS011;26549;50.918;5.338;2022-09-27T08:40:51;2.10;;;1.70;;
40827;SDS011;26549;50.918;5.338;2022-09-27T08:48:58;1.40;;;1.30;;
40827;SDS011;26549;50.918;5.338;2022-09-27T08:51:38;2.33;;;2.03;;
40827;SDS011;26549;50.918;5.338;2022-09-27T08:54:07;4.45;;;2.03;;
40827;SDS011;26549;50.918;5.338;2022-09-27T08:57:00;4.93;;;2.00;;
40827;SDS011;26549;50.918;5.338;2022-09-27T08:59:34;7.60;;;1.70;;
40827;SDS011;26549;50.918;5.338;2022-09-27T09:02:08;1.80;;;1.30;;
40827;SDS011;26549;50.918;5.338;2022-09-27T09:04:45;3.85;;;1.40;;
40827;SDS011;26549;50.918;5.338;2022-09-27T09:07:30;2.38;;;1.80;;
40827;SDS011;26549;50.918;5.338;2022-09-27T09:10:33;3.42;;;1.88;;
40827;SDS011;26549;50.918;5.338;2022-09-27T09:16:08;8.35;;;3.10;;
40827;SDS011;26549;50.918;5.338;2022-09-27T09:27:03;3.63;;;1.30;;
40827;SDS011;26549;50.918;5.338;2022-09-27T09:29:55;1.73;;;1.42;;
40827;SDS011;26549;50.918;5.338;2022-09-27T09:35:25;2.50;;;1.67;;
40827;SDS011;26549;50.918;5.338;2022-09-27T09:37:57;2.22;;;1.30;;
40827;SDS011;26549;50.918;5.338;2022-09-27T09:40:38;4.97;;;1.80;;
40827;SDS011;26549;50.918;5.338;2022-09-27T09:43:18;3.42;;;1.48;;
40827;SDS011;26549;50.918;5.338;2022-09-27T09:45:50;2.17;;;1.55;;
40827;SDS011;26549;50.918;5.338;2022-09-27T09:51:17;1.48;;;1.20;;
40827;SDS011;26549;50.918;5.338;2022-09-27T09:54:01;1.67;;;1.30;;
40827;SDS011;26549;50.918;5.338;2022-09-27T09:56:43;3.85;;;0.90;;
40827;SDS011;26549;50.918;5.338;2022-09-27T09:59:23;1.50;;;0.90;;
40827;SDS011;26549;50.918;5.338;2022-09-27T10:01:55;2.75;;;1.27;;
40827;SDS011;26549;50.918;5.338;2022-09-27T10:04:31;2.85;;;1.48;;
40827;SDS011;26549;50.918;5.338;2022-09-27T10:06:58;3.30;;;1.38;;
40827;SDS011;26549;50.918;5.338;2022-09-27T10:09:25;2.05;;;1.00;;
40827;SDS011;26549;50.918;5.338;2022-09-27T10:11:52;4.25;;;1.02;;
40827;SDS011;26549;50.918;5.338;2022-09-27T10:14:19;2.42;;;1.00;;
40827;SDS011;26549;50.918;5.338;2022-09-27T10:16:54;2.38;;;1.30;;
40827;SDS011;26549;50.918;5.338;2022-09-27T10:19:28;2.15;;;1.15;;
40827;SDS011;26549;50.918;5.338;2022-09-27T10:22:39;2.22;;;0.80;;
40827;SDS011;26549;50.918;5.338;2022-09-27T10:27:24;1.65;;;0.80;;
40827;SDS011;26549;50.918;5.338;2022-09-27T10:29:57;1.00;;;0.93;;
40827;SDS011;26549;50.918;5.338;2022-09-27T10:32:27;2.70;;;0.70;;
40827;SDS011;26549;50.918;5.338;2022-09-27T10:38:11;2.25;;;0.70;;
40827;SDS011;26549;50.918;5.338;2022-09-27T10:40:42;2.20;;;1.30;;
40827;SDS011;26549;50.918;5.338;2022-09-27T10:43:25;0.88;;;0.82;;
40827;SDS011;26549;50.918;5.338;2022-09-27T10:46:00;1.02;;;0.82;;
40827;SDS011;26549;50.918;5.338;2022-09-27T10:48:33;0.93;;;0.82;;
40827;SDS011;26549;50.918;5.338;2022-09-27T10:51:01;1.65;;;0.80;;
40827;SDS011;26549;50.918;5.338;2022-09-27T10:53:32;1.52;;;1.05;;
40827;SDS011;26549;50.918;5.338;2022-09-27T10:56:00;0.75;;;0.68;;
40827;SDS011;26549;50.918;5.338;2022-09-27T10:58:28;7.35;;;1.83;;
40827;SDS011;26549;50.918;5.338;2022-09-27T11:00:57;1.83;;;0.77;;
40827;SDS011;26549;50.918;5.338;2022-09-27T11:03:28;1.15;;;0.88;;
40827;SDS011;26549;50.918;5.338;2022-09-27T11:05:56;1.65;;;0.95;;
40827;SDS011;26549;50.918;5.338;2022-09-27T11:08:30;0.90;;;0.60;;
40827;SDS011;26549;50.918;5.338;2022-09-27T11:13:38;3.45;;;0.70;;
40827;SDS011;26549;50.918;5.338;2022-09-27T11:16:19;2.50;;;0.88;;
40827;SDS011;26549;50.918;5.338;2022-09-27T11:21:52;4.78;;;0.98;;
40827;SDS011;26549;50.918;5.338;2022-09-27T11:24:31;2.83;;;0.82;;
40827;SDS011;26549;50.918;5.338;2022-09-27T11:30:09;5.05;;;2.53;;
40827;SDS011;26549;50.918;5.338;2022-09-27T11:32:45;3.63;;;0.80;;
40827;SDS011;26549;50.918;5.338;2022-09-27T11:44:31;1.77;;;1.63;;
40827;SDS011;26549;50.918;5.338;2022-09-27T11:47:15;4.07;;;0.82;;
40827;SDS011;26549;50.918;5.338;2022-09-27T11:49:58;2.58;;;0.93;;
40827;SDS011;26549;50.918;5.338;2022-09-27T11:52:59;4.32;;;0.70;;
40827;SDS011;26549;50.918;5.338;2022-09-27T12:01:29;3.42;;;1.00;;
40827;SDS011;26549;50.918;5.338;2022-09-27T12:09:51;2.95;;;1.25;;
40827;SDS011;26549;50.918;5.338;2022-09-27T12:12:22;2.08;;;1.00;;
40827;SDS011;26549;50.918;5.338;2022-09-27T12:14:52;5.18;;;1.58;;
40827;SDS011;26549;50.918;5.338;2022-09-27T12:17:28;3.72;;;0.98;;
40827;SDS011;26549;50.918;5.338;2022-09-27T12:20:02;5.25;;;1.23;;
40827;SDS011;26549;50.918;5.338;2022-09-27T12:22:36;3.10;;;1.30;;
40827;SDS011;26549;50.918;5.338;2022-09-27T12:25:27;2.67;;;1.00;;
40827;SDS011;26549;50.918;5.338;2022-09-27T12:28:03;4.15;;;1.15;;
40827;SDS011;26549;50.918;5.338;2022-09-27T12:30:39;6.57;;;2.13;;
40827;SDS011;26549;50.918;5.338;2022-09-27T12:36:28;3.55;;;1.40;;
40827;SDS011;26549;50.918;5.338;2022-09-27T12:41:40;4.85;;;1.00;;
40827;SDS011;26549;50.918;5.338;2022-09-27T12:44:12;4.35;;;1.00;;
40827;SDS011;26549;50.918;5.338;2022-09-27T13:07:45;3.83;;;0.77;;
40827;SDS011;26549;50.918;5.338;2022-09-27T13:20:00;4.20;;;0.77;;
40827;SDS011;26549;50.918;5.338;2022-09-27T13:34:36;4.95;;;1.00;;
40827;SDS011;26549;50.918;5.338;2022-09-27T13:40:20;3.30;;;1.27;;
40827;SDS011;26549;50.918;5.338;2022-09-27T13:46:01;1.00;;;0.60;;
40827;SDS011;26549;50.918;5.338;2022-09-27T13:54:36;1.88;;;1.00;;
40827;SDS011;26549;50.918;5.338;2022-09-27T13:57:36;2.97;;;0.93;;
40827;SDS011;26549;50.918;5.338;2022-09-27T14:00:17;6.90;;;1.35;;
40827;SDS011;26549;50.918;5.338;2022-09-27T14:05:31;2.40;;;0.93;;
40827;SDS011;26549;50.918;5.338;2022-09-27T14:08:16;4.00;;;0.88;;
40827;SDS011;26549;50.918;5.338;2022-09-27T14:11:14;1.10;;;0.73;;
40827;SDS011;26549;50.918;5.338;2022-09-27T14:13:47;6.15;;;1.08;;
40827;SDS011;26549;50.918;5.338;2022-09-27T14:16:14;1.17;;;0.60;;
40827;SDS011;26549;50.918;5.338;2022-09-27T14:18:42;1.25;;;0.73;;
40827;SDS011;26549;50.918;5.338;2022-09-27T14:21:21;3.50;;;0.88;;
40827;SDS011;26549;50.918;5.338;2022-09-27T14:24:13;2.17;;;0.80;;
40827;SDS011;26549;50.918;5.338;2022-09-27T14:26:46;1.17;;;0.43;;
40827;SDS011;26549;50.918;5.338;2022-09-27T14:29:17;4.97;;;0.73;;
40827;SDS011;26549;50.918;5.338;2022-09-27T14:35:12;2.67;;;0.93;;
40827;SDS011;26549;50.918;5.338;2022-09-27T14:38:12;3.13;;;1.30;;
40827;SDS011;26549;50.918;5.338;2022-09-27T14:43:26;1.75;;;0.90;;
40827;SDS011;26549;50.918;5.338;2022-09-27T14:45:57;2.90;;;1.65;;
40827;SDS011;26549;50.918;5.338;2022-09-27T14:48:29;7.47;;;1.00;;
40827;SDS011;26549;50.918;5.338;2022-09-27T14:51:00;5.20;;;1.02;;
40827;SDS011;26549;50.918;5.338;2022-09-27T14:53:39;4.18;;;1.55;;
40827;SDS011;26549;50.918;5.338;2022-09-27T14:56:08;3.70;;;1.02;;
40827;SDS011;26549;50.918;5.338;2022-09-27T14:58:42;1.13;;;0.70;;
40827;SDS011;26549;50.918;5.338;2022-09-27T15:01:14;9.35;;;1.20;;
40827;SDS011;26549;50.918;5.338;2022-09-27T15:03:41;2.83;;;0.88;;
40827;SDS011;26549;50.918;5.338;2022-09-27T15:06:09;4.18;;;1.40;;
40827;SDS011;26549;50.918;5.338;2022-09-27T15:08:45;4.18;;;1.10;;
40827;SDS011;26549;50.918;5.338;2022-09-27T15:11:14;4.28;;;1.27;;
40827;SDS011;26549;50.918;5.338;2022-09-27T15:13:42;4.75;;;1.30;;
40827;SDS011;26549;50.918;5.338;2022-09-27T15:16:17;4.43;;;0.85;;
40827;SDS011;26549;50.918;5.338;2022-09-27T15:18:46;2.47;;;0.90;;
40827;SDS011;26549;50.918;5.338;2022-09-27T15:21:39;7.32;;;1.80;;
40827;SDS011;26549;50.918;5.338;2022-09-27T15:24:34;5.43;;;1.00;;
40827;SDS011;26549;50.918;5.338;2022-09-27T15:27:04;3.25;;;0.93;;
40827;SDS011;26549;50.918;5.338;2022-09-27T15:29:52;3.70;;;1.13;;
40827;SDS011;26549;50.918;5.338;2022-09-27T15:32:20;1.92;;;1.00;;
40827;SDS011;26549;50.918;5.338;2022-09-27T15:34:48;5.03;;;1.73;;
40827;SDS011;26549;50.918;5.338;2022-09-27T15:37:32;6.00;;;1.27;;
40827;SDS011;26549;50.918;5.338;2022-09-27T15:42:59;2.75;;;1.15;;
40827;SDS011;26549;50.918;5.338;2022-09-27T15:45:30;3.15;;;0.88;;
40827;SDS011;26549;50.918;5.338;2022-09-27T15:48:13;5.38;;;1.05;;
40827;SDS011;26549;50.918;5.338;2022-09-27T15:50:41;1.70;;;0.75;;
40827;SDS011;26549;50.918;5.338;2022-09-27T15:53:08;8.63;;;1.13;;
40827;SDS011;26549;50.918;5.338;2022-09-27T15:55:38;4.60;;;1.27;;
40827;SDS011;26549;50.918;5.338;2022-09-27T15:58:09;3.42;;;0.80;;
40827;SDS011;26549;50.918;5.338;2022-09-27T16:00:53;3.95;;;0.80;;
40827;SDS011;26549;50.918;5.338;2022-09-27T16:03:20;4.22;;;0.98;;
40827;SDS011;26549;50.918;5.338;2022-09-27T16:05:46;2.35;;;1.02;;
40827;SDS011;26549;50.918;5.338;2022-09-27T16:08:12;3.35;;;1.00;;
40827;SDS011;26549;50.918;5.338;2022-09-27T16:10:38;7.72;;;1.90;;
40827;SDS011;26549;50.918;5.338;2022-09-27T16:13:09;1.42;;;1.00;;
40827;SDS011;26549;50.918;5.338;2022-09-27T16:15:35;1.70;;;0.88;;
40827;SDS011;26549;50.918;5.338;2022-09-27T16:18:01;3.72;;;1.02;;
40827;SDS011;26549;50.918;5.338;2022-09-27T16:20:27;8.90;;;1.17;;
40827;SDS011;26549;50.918;5.338;2022-09-27T16:22:54;5.53;;;1.27;;
40827;SDS011;26549;50.918;5.338;2022-09-27T16:25:21;9.93;;;1.25;;
40827;SDS011;26549;50.918;5.338;2022-09-27T16:27:48;2.65;;;1.13;;
40827;SDS011;26549;50.918;5.338;2022-09-27T16:30:14;4.88;;;1.27;;
40827;SDS011;26549;50.918;5.338;2022-09-27T16:32:41;1.40;;;1.10;;
40827;SDS011;26549;50.918;5.338;2022-09-27T16:35:11;5.93;;;2.17;;
40827;SDS011;26549;50.918;5.338;2022-09-27T16:37:38;6.75;;;2.15;;
40827;SDS011;26549;50.918;5.338;2022-09-27T16:40:05;3.55;;;1.10;;
40827;SDS011;26549;50.918;5.338;2022-09-27T16:42:32;2.70;;;1.60;;
40827;SDS011;26549;50.918;5.338;2022-09-27T16:44:59;3.80;;;1.20;;
40827;SDS011;26549;50.918;5.338;2022-09-27T16:47:26;3.08;;;1.60;;
40827;SDS011;26549;50.918;5.338;2022-09-27T16:49:52;6.93;;;2.10;;
40827;SDS011;26549;50.918;5.338;2022-09-27T16:52:36;7.38;;;2.05;;
40827;SDS011;26549;50.918;5.338;2022-09-27T16:55:02;3.90;;;1.30;;
40827;SDS011;26549;50.918;5.338;2022-09-27T16:57:30;3.45;;;1.50;;
40827;SDS011;26549;50.918;5.338;2022-09-27T16:59:58;8.23;;;1.75;;
40827;SDS011;26549;50.918;5.338;2022-09-27T17:02:25;4.65;;;1.70;;
40827;SDS011;26549;50.918;5.338;2022-09-27T17:04:51;6.50;;;2.50;;
40827;SDS011;26549;50.918;5.338;2022-09-27T17:07:17;5.13;;;2.03;;
40827;SDS011;26549;50.918;5.338;2022-09-27T17:09:45;4.72;;;1.80;;
40827;SDS011;26549;50.918;5.338;2022-09-27T17:12:11;6.65;;;2.53;;
40827;SDS011;26549;50.918;5.338;2022-09-27T17:14:38;4.80;;;1.90;;
40827;SDS011;26549;50.918;5.338;2022-09-27T17:17:04;4.05;;;2.15;;
40827;SDS011;26549;50.918;5.338;2022-09-27T17:19:31;3.72;;;2.35;;
40827;SDS011;26549;50.918;5.338;2022-09-27T17:21:58;2.15;;;1.40;;
40827;SDS011;26549;50.918;5.338;2022-09-27T17:24:24;4.65;;;1.98;;
40827;SDS011;26549;50.918;5.338;2022-09-27T17:26:50;3.45;;;1.63;;
40827;SDS011;26549;50.918;5.338;2022-09-27T17:29:16;5.30;;;2.35;;
40827;SDS011;26549;50.918;5.338;2022-09-27T17:31:42;9.02;;;4.63;;
40827;SDS011;26549;50.918;5.338;2022-09-27T17:34:11;8.27;;;3.70;;
40827;SDS011;26549;50.918;5.338;2022-09-27T17:36:41;11.18;;;4.88;;
40827;SDS011;26549;50.918;5.338;2022-09-27T17:39:12;6.60;;;3.15;;
40827;SDS011;26549;50.918;5.338;2022-09-27T17:41:42;4.97;;;2.97;;
40827;SDS011;26549;50.918;5.338;2022-09-27T17:44:12;5.53;;;2.55;;
40827;SDS011;26549;50.918;5.338;2022-09-27T17:46:39;7.07;;;3.50;;
40827;SDS011;26549;50.918;5.338;2022-09-27T17:49:05;7.03;;;3.78;;
40827;SDS011;26549;50.918;5.338;2022-09-27T17:51:52;11.80;;;5.78;;
40827;SDS011;26549;50.918;5.338;2022-09-27T17:54:19;13.00;;;7.13;;